sensor_id;sensor_type;location;lat;lon;timestamp;temperature;humidity
5508;DHT22;2776;51.046;6.772;2023-08-12T00:02:32;22.30;99.90
5508;DHT22;2776;51.046;6.772;2023-08-12T00:04:59;22.30;99.90
5508;DHT22;2776;51.046;6.772;2023-08-12T00:07:26;22.30;99.90
5508;DHT22;2776;51.046;6.772;2023-08-12T00:09:52;22.20;99.90
5508;DHT22;2776;51.046;6.772;2023-08-12T00:12:21;22.10;99.90
5508;DHT22;2776;51.046;6.772;2023-08-12T00:14:48;22.10;99.90
5508;DHT22;2776;51.046;6.772;2023-08-12T00:17:16;22.10;99.90
5508;DHT22;2776;51.046;6.772;2023-08-12T00:19:43;22.10;99.90
5508;DHT22;2776;51.046;6.772;2023-08-12T00:22:09;22.00;99.90
5508;DHT22;2776;51.046;6.772;2023-08-12T00:24:36;21.90;99.90
5508;DHT22;2776;51.046;6.772;2023-08-12T00:27:03;21.90;99.90
5508;DHT22;2776;51.046;6.772;2023-08-12T00:29:29;21.80;99.90
5508;DHT22;2776;51.046;6.772;2023-08-12T00:31:56;21.90;99.90
5508;DHT22;2776;51.046;6.772;2023-08-12T00:34:24;21.90;99.90
5508;DHT22;2776;51.046;6.772;2023-08-12T00:36:51;21.80;99.90
5508;DHT22;2776;51.046;6.772;2023-08-12T00:39:18;21.80;99.90
5508;DHT22;2776;51.046;6.772;2023-08-12T00:41:45;21.70;99.90
5508;DHT22;2776;51.046;6.772;2023-08-12T00:44:12;21.60;99.90
5508;DHT22;2776;51.046;6.772;2023-08-12T00:46:41;21.50;99.90
5508;DHT22;2776;51.046;6.772;2023-08-12T00:49:07;21.50;99.90
5508;DHT22;2776;51.046;6.772;2023-08-12T00:51:37;21.40;99.90
5508;DHT22;2776;51.046;6.772;2023-08-12T00:54:05;21.40;99.90
5508;DHT22;2776;51.046;6.772;2023-08-12T00:56:34;21.40;99.90
5508;DHT22;2776;51.046;6.772;2023-08-12T00:59:04;21.40;99.90
5508;DHT22;2776;51.046;6.772;2023-08-12T01:01:31;21.40;99.90
5508;DHT22;2776;51.046;6.772;2023-08-12T01:03:58;21.40;99.90
5508;DHT22;2776;51.046;6.772;2023-08-12T01:06:24;21.40;99.90
5508;DHT22;2776;51.046;6.772;2023-08-12T01:08:53;21.40;99.90
5508;DHT22;2776;51.046;6.772;2023-08-12T01:11:23;21.40;99.90
5508;DHT22;2776;51.046;6.772;2023-08-12T01:13:57;21.30;99.90
5508;DHT22;2776;51.046;6.772;2023-08-12T01:16:27;21.30;99.90
5508;DHT22;2776;51.046;6.772;2023-08-12T01:18:56;21.30;99.90
5508;DHT22;2776;51.046;6.772;2023-08-12T01:21:24;21.30;99.90
5508;DHT22;2776;51.046;6.772;2023-08-12T01:23:54;21.30;99.90
5508;DHT22;2776;51.046;6.772;2023-08-12T01:26:21;21.30;99.90
5508;DHT22;2776;51.046;6.772;2023-08-12T01:28:48;21.30;99.90
5508;DHT22;2776;51.046;6.772;2023-08-12T01:31:18;21.40;99.90
5508;DHT22;2776;51.046;6.772;2023-08-12T01:33:49;21.40;99.90
5508;DHT22;2776;51.046;6.772;2023-08-12T01:36:19;21.50;99.90
5508;DHT22;2776;51.046;6.772;2023-08-12T01:38:47;21.50;99.90
5508;DHT22;2776;51.046;6.772;2023-08-12T01:41:16;21.50;99.90
5508;DHT22;2776;51.046;6.772;2023-08-12T01:43:44;21.50;99.90
5508;DHT22;2776;51.046;6.772;2023-08-12T01:46:11;21.60;99.90
5508;DHT22;2776;51.046;6.772;2023-08-12T01:48:38;21.60;99.90
5508;DHT22;2776;51.046;6.772;2023-08-12T01:51:05;21.60;99.90
5508;DHT22;2776;51.046;6.772;2023-08-12T01:53:32;21.60;99.90
5508;DHT22;2776;51.046;6.772;2023-08-12T01:55:59;21.60;99.90
5508;DHT22;2776;51.046;6.772;2023-08-12T01:58:27;21.70;99.90
5508;DHT22;2776;51.046;6.772;2023-08-12T02:00:54;21.60;99.90
5508;DHT22;2776;51.046;6.772;2023-08-12T02:03:20;21.60;99.90
5508;DHT22;2776;51.046;6.772;2023-08-12T02:05:47;21.60;99.90
5508;DHT22;2776;51.046;6.772;2023-08-12T02:08:14;21.60;99.90
5508;DHT22;2776;51.046;6.772;2023-08-12T02:10:41;21.60;99.90
5508;DHT22;2776;51.046;6.772;2023-08-12T02:13:08;21.70;99.90
5508;DHT22;2776;51.046;6.772;2023-08-12T02:15:36;21.60;99.90
5508;DHT22;2776;51.046;6.772;2023-08-12T02:18:03;21.60;99.90
5508;DHT22;2776;51.046;6.772;2023-08-12T02:20:30;21.60;99.90
5508;DHT22;2776;51.046;6.772;2023-08-12T02:22:56;21.60;99.90
5508;DHT22;2776;51.046;6.772;2023-08-12T02:25:23;21.50;99.90
5508;DHT22;2776;51.046;6.772;2023-08-12T02:27:50;21.50;99.90
5508;DHT22;2776;51.046;6.772;2023-08-12T02:30:17;21.60;99.90
5508;DHT22;2776;51.046;6.772;2023-08-12T02:32:45;21.50;99.90
5508;DHT22;2776;51.046;6.772;2023-08-12T02:35:12;21.50;99.90
5508;DHT22;2776;51.046;6.772;2023-08-12T02:37:38;21.50;99.90
5508;DHT22;2776;51.046;6.772;2023-08-12T02:40:06;21.50;99.90
5508;DHT22;2776;51.046;6.772;2023-08-12T02:42:33;21.60;99.90
5508;DHT22;2776;51.046;6.772;2023-08-12T02:45:00;21.60;99.90
5508;DHT22;2776;51.046;6.772;2023-08-12T02:47:27;21.60;99.90
5508;DHT22;2776;51.046;6.772;2023-08-12T02:49:55;21.60;99.90
5508;DHT22;2776;51.046;6.772;2023-08-12T02:52:21;21.60;99.90
5508;DHT22;2776;51.046;6.772;2023-08-12T02:54:48;21.60;99.90
5508;DHT22;2776;51.046;6.772;2023-08-12T02:57:15;21.60;99.90
5508;DHT22;2776;51.046;6.772;2023-08-12T02:59:42;21.60;99.90
5508;DHT22;2776;51.046;6.772;2023-08-12T03:02:08;21.60;99.90
5508;DHT22;2776;51.046;6.772;2023-08-12T03:04:35;21.60;99.90
5508;DHT22;2776;51.046;6.772;2023-08-12T03:07:03;21.60;99.90
5508;DHT22;2776;51.046;6.772;2023-08-12T03:09:30;21.60;99.90
5508;DHT22;2776;51.046;6.772;2023-08-12T03:11:57;21.60;99.90
5508;DHT22;2776;51.046;6.772;2023-08-12T03:14:28;21.50;99.90
5508;DHT22;2776;51.046;6.772;2023-08-12T03:16:54;21.50;99.90
5508;DHT22;2776;51.046;6.772;2023-08-12T03:19:21;21.50;99.90
5508;DHT22;2776;51.046;6.772;2023-08-12T03:21:48;21.50;99.90
5508;DHT22;2776;51.046;6.772;2023-08-12T03:24:16;21.50;99.90
5508;DHT22;2776;51.046;6.772;2023-08-12T03:26:43;21.60;99.90
5508;DHT22;2776;51.046;6.772;2023-08-12T03:29:09;21.60;99.90
5508;DHT22;2776;51.046;6.772;2023-08-12T03:31:36;21.60;99.90
5508;DHT22;2776;51.046;6.772;2023-08-12T03:34:03;21.60;99.90
5508;DHT22;2776;51.046;6.772;2023-08-12T03:36:30;21.60;99.90
5508;DHT22;2776;51.046;6.772;2023-08-12T03:38:56;21.50;99.90
5508;DHT22;2776;51.046;6.772;2023-08-12T03:41:25;21.50;99.90
5508;DHT22;2776;51.046;6.772;2023-08-12T03:43:51;21.50;99.90
5508;DHT22;2776;51.046;6.772;2023-08-12T03:46:18;21.40;99.90
5508;DHT22;2776;51.046;6.772;2023-08-12T03:48:45;21.40;99.90
5508;DHT22;2776;51.046;6.772;2023-08-12T03:51:11;21.40;99.90
5508;DHT22;2776;51.046;6.772;2023-08-12T03:53:38;21.30;99.90
5508;DHT22;2776;51.046;6.772;2023-08-12T03:56:05;21.30;99.90
5508;DHT22;2776;51.046;6.772;2023-08-12T03:58:33;21.30;99.90
5508;DHT22;2776;51.046;6.772;2023-08-12T04:01:00;21.20;99.90
5508;DHT22;2776;51.046;6.772;2023-08-12T04:03:26;21.20;99.90
5508;DHT22;2776;51.046;6.772;2023-08-12T04:05:53;21.20;99.90
5508;DHT22;2776;51.046;6.772;2023-08-12T04:08:22;21.20;99.90
5508;DHT22;2776;51.046;6.772;2023-08-12T04:10:49;21.20;99.90
5508;DHT22;2776;51.046;6.772;2023-08-12T04:13:16;21.20;99.90
5508;DHT22;2776;51.046;6.772;2023-08-12T04:15:48;21.10;99.90
5508;DHT22;2776;51.046;6.772;2023-08-12T04:18:15;21.10;99.90
5508;DHT22;2776;51.046;6.772;2023-08-12T04:20:41;21.20;99.90
5508;DHT22;2776;51.046;6.772;2023-08-12T04:23:08;21.10;99.90
5508;DHT22;2776;51.046;6.772;2023-08-12T04:25:35;21.10;99.90
5508;DHT22;2776;51.046;6.772;2023-08-12T04:28:02;21.10;99.90
5508;DHT22;2776;51.046;6.772;2023-08-12T04:30:28;21.10;99.90
5508;DHT22;2776;51.046;6.772;2023-08-12T04:32:57;21.10;99.90
5508;DHT22;2776;51.046;6.772;2023-08-12T04:35:23;21.10;99.90
5508;DHT22;2776;51.046;6.772;2023-08-12T04:37:50;21.10;99.90
5508;DHT22;2776;51.046;6.772;2023-08-12T04:40:17;21.10;99.90
5508;DHT22;2776;51.046;6.772;2023-08-12T04:42:43;21.10;99.90
5508;DHT22;2776;51.046;6.772;2023-08-12T04:45:10;21.10;99.90
5508;DHT22;2776;51.046;6.772;2023-08-12T04:47:38;21.10;99.90
5508;DHT22;2776;51.046;6.772;2023-08-12T04:50:07;21.10;99.90
5508;DHT22;2776;51.046;6.772;2023-08-12T04:52:34;21.10;99.90
5508;DHT22;2776;51.046;6.772;2023-08-12T04:55:00;21.20;99.90
5508;DHT22;2776;51.046;6.772;2023-08-12T04:57:28;21.20;99.90
5508;DHT22;2776;51.046;6.772;2023-08-12T04:59:55;21.30;99.90
5508;DHT22;2776;51.046;6.772;2023-08-12T05:02:22;21.30;99.90
5508;DHT22;2776;51.046;6.772;2023-08-12T05:04:49;21.30;99.90
5508;DHT22;2776;51.046;6.772;2023-08-12T05:07:17;21.20;99.90
5508;DHT22;2776;51.046;6.772;2023-08-12T05:09:44;21.30;99.90
5508;DHT22;2776;51.046;6.772;2023-08-12T05:12:11;21.30;99.90
5508;DHT22;2776;51.046;6.772;2023-08-12T05:17:05;21.40;99.90
5508;DHT22;2776;51.046;6.772;2023-08-12T05:19:32;21.40;99.90
5508;DHT22;2776;51.046;6.772;2023-08-12T05:21:59;21.40;99.90
5508;DHT22;2776;51.046;6.772;2023-08-12T05:24:27;21.40;99.90
5508;DHT22;2776;51.046;6.772;2023-08-12T05:26:53;21.40;99.90
5508;DHT22;2776;51.046;6.772;2023-08-12T05:29:20;21.30;99.90
5508;DHT22;2776;51.046;6.772;2023-08-12T05:31:47;21.30;99.90
5508;DHT22;2776;51.046;6.772;2023-08-12T05:34:14;21.20;99.90
5508;DHT22;2776;51.046;6.772;2023-08-12T05:36:40;21.10;99.90
5508;DHT22;2776;51.046;6.772;2023-08-12T05:39:07;21.10;99.90
5508;DHT22;2776;51.046;6.772;2023-08-12T05:41:35;21.10;99.90
5508;DHT22;2776;51.046;6.772;2023-08-12T05:44:02;21.10;99.90
5508;DHT22;2776;51.046;6.772;2023-08-12T05:46:29;21.10;99.90
5508;DHT22;2776;51.046;6.772;2023-08-12T05:48:56;21.10;99.90
5508;DHT22;2776;51.046;6.772;2023-08-12T05:51:23;21.00;99.90
5508;DHT22;2776;51.046;6.772;2023-08-12T05:53:49;21.10;99.90
5508;DHT22;2776;51.046;6.772;2023-08-12T05:56:16;20.90;99.90
5508;DHT22;2776;51.046;6.772;2023-08-12T05:58:44;20.90;99.90
5508;DHT22;2776;51.046;6.772;2023-08-12T06:01:11;20.90;99.90
5508;DHT22;2776;51.046;6.772;2023-08-12T06:03:38;20.90;99.90
5508;DHT22;2776;51.046;6.772;2023-08-12T06:06:04;20.90;99.90
5508;DHT22;2776;51.046;6.772;2023-08-12T06:08:31;20.90;99.90
5508;DHT22;2776;51.046;6.772;2023-08-12T06:10:58;20.90;99.90
5508;DHT22;2776;51.046;6.772;2023-08-12T06:13:25;20.80;99.90
5508;DHT22;2776;51.046;6.772;2023-08-12T06:15:53;20.80;99.90
5508;DHT22;2776;51.046;6.772;2023-08-12T06:18:19;20.80;99.90
5508;DHT22;2776;51.046;6.772;2023-08-12T06:20:46;20.70;99.90
5508;DHT22;2776;51.046;6.772;2023-08-12T06:23:13;20.70;99.90
5508;DHT22;2776;51.046;6.772;2023-08-12T06:25:40;20.70;99.90
5508;DHT22;2776;51.046;6.772;2023-08-12T06:28:08;20.70;99.90
5508;DHT22;2776;51.046;6.772;2023-08-12T06:30:35;20.70;99.90
5508;DHT22;2776;51.046;6.772;2023-08-12T06:33:04;20.70;99.90
5508;DHT22;2776;51.046;6.772;2023-08-12T06:35:30;20.70;99.90
5508;DHT22;2776;51.046;6.772;2023-08-12T06:37:57;20.70;99.90
5508;DHT22;2776;51.046;6.772;2023-08-12T06:40:25;20.70;99.90
5508;DHT22;2776;51.046;6.772;2023-08-12T06:42:52;20.70;99.90
5508;DHT22;2776;51.046;6.772;2023-08-12T06:45:19;20.70;99.90
5508;DHT22;2776;51.046;6.772;2023-08-12T06:47:45;20.70;99.90
5508;DHT22;2776;51.046;6.772;2023-08-12T06:50:13;20.80;99.90
5508;DHT22;2776;51.046;6.772;2023-08-12T06:52:40;21.00;99.90
5508;DHT22;2776;51.046;6.772;2023-08-12T06:55:07;21.10;99.90
5508;DHT22;2776;51.046;6.772;2023-08-12T06:57:34;21.30;99.90
5508;DHT22;2776;51.046;6.772;2023-08-12T07:00:01;21.50;99.90
5508;DHT22;2776;51.046;6.772;2023-08-12T07:02:27;21.60;99.90
5508;DHT22;2776;51.046;6.772;2023-08-12T07:04:54;21.80;99.90
5508;DHT22;2776;51.046;6.772;2023-08-12T07:07:22;21.90;99.90
5508;DHT22;2776;51.046;6.772;2023-08-12T07:09:49;22.10;99.90
5508;DHT22;2776;51.046;6.772;2023-08-12T07:12:16;22.10;99.90
5508;DHT22;2776;51.046;6.772;2023-08-12T07:14:42;22.10;99.90
5508;DHT22;2776;51.046;6.772;2023-08-12T07:17:09;22.00;99.90
5508;DHT22;2776;51.046;6.772;2023-08-12T07:19:36;22.10;99.90
5508;DHT22;2776;51.046;6.772;2023-08-12T07:22:03;22.10;99.90
5508;DHT22;2776;51.046;6.772;2023-08-12T07:24:31;22.10;99.90
5508;DHT22;2776;51.046;6.772;2023-08-12T07:26:58;22.20;99.90
5508;DHT22;2776;51.046;6.772;2023-08-12T07:29:25;22.20;99.90
5508;DHT22;2776;51.046;6.772;2023-08-12T07:31:52;22.20;99.90
5508;DHT22;2776;51.046;6.772;2023-08-12T07:34:18;22.00;99.90
5508;DHT22;2776;51.046;6.772;2023-08-12T07:36:45;22.00;99.90
5508;DHT22;2776;51.046;6.772;2023-08-12T07:39:12;21.90;99.90
5508;DHT22;2776;51.046;6.772;2023-08-12T07:41:40;21.80;99.90
5508;DHT22;2776;51.046;6.772;2023-08-12T07:44:07;21.70;99.90
5508;DHT22;2776;51.046;6.772;2023-08-12T07:46:33;21.70;99.90
5508;DHT22;2776;51.046;6.772;2023-08-12T07:49:00;21.60;99.90
5508;DHT22;2776;51.046;6.772;2023-08-12T07:51:27;21.60;99.90
5508;DHT22;2776;51.046;6.772;2023-08-12T07:53:53;21.60;99.90
5508;DHT22;2776;51.046;6.772;2023-08-12T07:56:20;21.70;99.90
5508;DHT22;2776;51.046;6.772;2023-08-12T07:58:48;21.70;99.90
5508;DHT22;2776;51.046;6.772;2023-08-12T08:01:15;21.60;99.90
5508;DHT22;2776;51.046;6.772;2023-08-12T08:03:42;21.70;99.90
5508;DHT22;2776;51.046;6.772;2023-08-12T08:06:09;21.80;99.90
5508;DHT22;2776;51.046;6.772;2023-08-12T08:08:35;21.90;99.90
5508;DHT22;2776;51.046;6.772;2023-08-12T08:11:02;21.90;99.90
5508;DHT22;2776;51.046;6.772;2023-08-12T08:13:29;22.10;99.90
5508;DHT22;2776;51.046;6.772;2023-08-12T08:15:57;22.30;99.90
5508;DHT22;2776;51.046;6.772;2023-08-12T08:18:24;22.50;99.90
5508;DHT22;2776;51.046;6.772;2023-08-12T08:20:51;22.90;99.90
5508;DHT22;2776;51.046;6.772;2023-08-12T08:23:18;23.00;99.90
5508;DHT22;2776;51.046;6.772;2023-08-12T08:25:45;23.20;99.90
5508;DHT22;2776;51.046;6.772;2023-08-12T08:28:12;23.20;99.90
5508;DHT22;2776;51.046;6.772;2023-08-12T08:30:39;23.20;99.90
5508;DHT22;2776;51.046;6.772;2023-08-12T08:33:07;23.20;99.90
5508;DHT22;2776;51.046;6.772;2023-08-12T08:35:34;23.20;99.90
5508;DHT22;2776;51.046;6.772;2023-08-12T08:38:01;23.10;99.90
5508;DHT22;2776;51.046;6.772;2023-08-12T08:40:28;23.10;99.90
5508;DHT22;2776;51.046;6.772;2023-08-12T08:43:01;23.00;99.90
5508;DHT22;2776;51.046;6.772;2023-08-12T08:45:30;22.80;99.90
5508;DHT22;2776;51.046;6.772;2023-08-12T08:47:59;22.80;99.90
5508;DHT22;2776;51.046;6.772;2023-08-12T08:50:28;22.70;99.90
5508;DHT22;2776;51.046;6.772;2023-08-12T08:52:56;22.70;99.90
5508;DHT22;2776;51.046;6.772;2023-08-12T08:55:23;22.70;99.90
5508;DHT22;2776;51.046;6.772;2023-08-12T08:57:50;22.90;99.90
5508;DHT22;2776;51.046;6.772;2023-08-12T09:00:17;23.00;99.90
5508;DHT22;2776;51.046;6.772;2023-08-12T09:02:46;23.20;99.90
5508;DHT22;2776;51.046;6.772;2023-08-12T09:05:14;23.30;99.90
5508;DHT22;2776;51.046;6.772;2023-08-12T09:07:44;23.30;99.90
5508;DHT22;2776;51.046;6.772;2023-08-12T09:10:12;23.50;99.90
5508;DHT22;2776;51.046;6.772;2023-08-12T09:12:39;23.80;99.90
5508;DHT22;2776;51.046;6.772;2023-08-12T09:15:06;24.10;99.90
5508;DHT22;2776;51.046;6.772;2023-08-12T09:17:35;24.10;99.90
5508;DHT22;2776;51.046;6.772;2023-08-12T09:20:01;24.20;99.90
5508;DHT22;2776;51.046;6.772;2023-08-12T09:22:33;24.20;99.90
5508;DHT22;2776;51.046;6.772;2023-08-12T09:25:01;24.40;99.90
5508;DHT22;2776;51.046;6.772;2023-08-12T09:27:30;24.50;99.90
5508;DHT22;2776;51.046;6.772;2023-08-12T09:29:57;24.50;99.90
5508;DHT22;2776;51.046;6.772;2023-08-12T09:32:24;24.60;99.90
5508;DHT22;2776;51.046;6.772;2023-08-12T09:34:52;24.70;99.90
5508;DHT22;2776;51.046;6.772;2023-08-12T09:37:20;24.60;99.90
5508;DHT22;2776;51.046;6.772;2023-08-12T09:39:48;24.50;99.90
5508;DHT22;2776;51.046;6.772;2023-08-12T09:42:17;24.50;99.90
5508;DHT22;2776;51.046;6.772;2023-08-12T09:44:44;24.50;99.90
5508;DHT22;2776;51.046;6.772;2023-08-12T09:47:11;24.60;99.90
5508;DHT22;2776;51.046;6.772;2023-08-12T09:49:39;25.00;99.90
5508;DHT22;2776;51.046;6.772;2023-08-12T09:52:06;25.20;99.90
5508;DHT22;2776;51.046;6.772;2023-08-12T09:54:33;25.40;99.90
5508;DHT22;2776;51.046;6.772;2023-08-12T09:57:01;25.60;99.90
5508;DHT22;2776;51.046;6.772;2023-08-12T09:59:32;25.70;99.90
5508;DHT22;2776;51.046;6.772;2023-08-12T10:02:00;25.50;99.90
5508;DHT22;2776;51.046;6.772;2023-08-12T10:04:35;25.40;99.90
5508;DHT22;2776;51.046;6.772;2023-08-12T10:07:05;25.10;99.90
5508;DHT22;2776;51.046;6.772;2023-08-12T10:09:32;24.90;99.90
5508;DHT22;2776;51.046;6.772;2023-08-12T10:12:00;24.80;99.90
5508;DHT22;2776;51.046;6.772;2023-08-12T10:14:28;24.60;99.90
5508;DHT22;2776;51.046;6.772;2023-08-12T10:16:58;24.30;99.90
5508;DHT22;2776;51.046;6.772;2023-08-12T10:19:25;24.30;99.90
5508;DHT22;2776;51.046;6.772;2023-08-12T10:21:54;24.20;99.90
5508;DHT22;2776;51.046;6.772;2023-08-12T10:24:23;24.20;99.90
5508;DHT22;2776;51.046;6.772;2023-08-12T10:26:51;24.30;99.90
5508;DHT22;2776;51.046;6.772;2023-08-12T10:29:18;24.50;99.90
5508;DHT22;2776;51.046;6.772;2023-08-12T10:31:46;24.70;99.90
5508;DHT22;2776;51.046;6.772;2023-08-12T10:34:20;24.80;99.90
5508;DHT22;2776;51.046;6.772;2023-08-12T10:36:47;24.80;99.90
5508;DHT22;2776;51.046;6.772;2023-08-12T10:39:14;24.90;99.90
5508;DHT22;2776;51.046;6.772;2023-08-12T10:41:50;24.90;99.90
5508;DHT22;2776;51.046;6.772;2023-08-12T10:44:20;24.90;99.90
5508;DHT22;2776;51.046;6.772;2023-08-12T10:46:50;24.90;99.90
5508;DHT22;2776;51.046;6.772;2023-08-12T10:49:20;24.80;99.90
5508;DHT22;2776;51.046;6.772;2023-08-12T10:51:48;24.70;99.90
5508;DHT22;2776;51.046;6.772;2023-08-12T10:54:21;24.60;99.90
5508;DHT22;2776;51.046;6.772;2023-08-12T10:57:05;24.60;99.90
5508;DHT22;2776;51.046;6.772;2023-08-12T10:59:52;24.40;99.90
5508;DHT22;2776;51.046;6.772;2023-08-12T11:02:27;24.20;99.90
5508;DHT22;2776;51.046;6.772;2023-08-12T11:04:57;24.10;99.90
5508;DHT22;2776;51.046;6.772;2023-08-12T11:07:32;24.10;99.90
5508;DHT22;2776;51.046;6.772;2023-08-12T11:10:03;24.10;99.90
5508;DHT22;2776;51.046;6.772;2023-08-12T11:12:33;24.20;99.90
5508;DHT22;2776;51.046;6.772;2023-08-12T11:15:03;24.20;99.90
5508;DHT22;2776;51.046;6.772;2023-08-12T11:17:33;24.10;99.90
5508;DHT22;2776;51.046;6.772;2023-08-12T11:20:03;24.10;99.90
5508;DHT22;2776;51.046;6.772;2023-08-12T11:22:31;24.00;99.90
5508;DHT22;2776;51.046;6.772;2023-08-12T11:24:59;23.80;99.90
5508;DHT22;2776;51.046;6.772;2023-08-12T11:27:26;23.70;99.90
5508;DHT22;2776;51.046;6.772;2023-08-12T11:29:53;23.60;99.90
5508;DHT22;2776;51.046;6.772;2023-08-12T11:32:19;23.70;99.90
5508;DHT22;2776;51.046;6.772;2023-08-12T11:34:46;23.80;99.90
5508;DHT22;2776;51.046;6.772;2023-08-12T11:37:14;24.00;99.90
5508;DHT22;2776;51.046;6.772;2023-08-12T11:39:41;24.10;99.90
5508;DHT22;2776;51.046;6.772;2023-08-12T11:42:08;24.20;99.90
5508;DHT22;2776;51.046;6.772;2023-08-12T11:44:35;24.50;99.90
5508;DHT22;2776;51.046;6.772;2023-08-12T11:47:02;24.80;99.90
5508;DHT22;2776;51.046;6.772;2023-08-12T11:49:29;25.10;99.90
5508;DHT22;2776;51.046;6.772;2023-08-12T11:51:55;25.30;99.90
5508;DHT22;2776;51.046;6.772;2023-08-12T11:54:24;25.30;99.90
5508;DHT22;2776;51.046;6.772;2023-08-12T11:56:50;25.30;99.90
5508;DHT22;2776;51.046;6.772;2023-08-12T11:59:18;25.40;99.90
5508;DHT22;2776;51.046;6.772;2023-08-12T12:01:46;25.60;99.90
5508;DHT22;2776;51.046;6.772;2023-08-12T12:04:15;25.80;99.90
5508;DHT22;2776;51.046;6.772;2023-08-12T12:06:43;25.70;99.90
5508;DHT22;2776;51.046;6.772;2023-08-12T12:09:10;25.90;99.90
5508;DHT22;2776;51.046;6.772;2023-08-12T12:11:40;25.90;99.90
5508;DHT22;2776;51.046;6.772;2023-08-12T12:14:08;26.10;99.90
5508;DHT22;2776;51.046;6.772;2023-08-12T12:16:38;26.30;99.90
5508;DHT22;2776;51.046;6.772;2023-08-12T12:19:09;26.40;99.90
5508;DHT22;2776;51.046;6.772;2023-08-12T12:21:39;26.20;99.90
5508;DHT22;2776;51.046;6.772;2023-08-12T12:24:07;26.20;99.90
5508;DHT22;2776;51.046;6.772;2023-08-12T12:26:34;26.30;99.90
5508;DHT22;2776;51.046;6.772;2023-08-12T12:29:03;26.40;99.90
5508;DHT22;2776;51.046;6.772;2023-08-12T12:31:32;26.40;99.90
5508;DHT22;2776;51.046;6.772;2023-08-12T12:34:00;26.30;99.90
5508;DHT22;2776;51.046;6.772;2023-08-12T12:36:26;26.40;99.90
5508;DHT22;2776;51.046;6.772;2023-08-12T12:38:53;26.40;99.90
5508;DHT22;2776;51.046;6.772;2023-08-12T12:41:20;26.60;99.90
5508;DHT22;2776;51.046;6.772;2023-08-12T12:43:46;26.60;99.90
5508;DHT22;2776;51.046;6.772;2023-08-12T12:46:15;26.60;99.90
5508;DHT22;2776;51.046;6.772;2023-08-12T12:48:42;26.60;99.90
5508;DHT22;2776;51.046;6.772;2023-08-12T12:51:08;26.50;99.90
5508;DHT22;2776;51.046;6.772;2023-08-12T12:53:35;26.50;99.90
5508;DHT22;2776;51.046;6.772;2023-08-12T12:56:02;26.60;99.90
5508;DHT22;2776;51.046;6.772;2023-08-12T12:58:30;26.60;99.90
5508;DHT22;2776;51.046;6.772;2023-08-12T13:00:57;26.20;99.90
5508;DHT22;2776;51.046;6.772;2023-08-12T13:03:25;25.60;99.90
5508;DHT22;2776;51.046;6.772;2023-08-12T13:05:52;25.30;99.90
5508;DHT22;2776;51.046;6.772;2023-08-12T13:08:19;25.00;99.90
5508;DHT22;2776;51.046;6.772;2023-08-12T13:10:46;24.90;99.90
5508;DHT22;2776;51.046;6.772;2023-08-12T13:13:13;24.60;99.90
5508;DHT22;2776;51.046;6.772;2023-08-12T13:15:40;24.60;99.90
5508;DHT22;2776;51.046;6.772;2023-08-12T13:18:07;24.70;99.90
5508;DHT22;2776;51.046;6.772;2023-08-12T13:20:36;24.50;99.90
5508;DHT22;2776;51.046;6.772;2023-08-12T13:23:03;24.40;99.90
5508;DHT22;2776;51.046;6.772;2023-08-12T13:25:31;24.50;99.90
5508;DHT22;2776;51.046;6.772;2023-08-12T13:27:59;24.60;99.90
5508;DHT22;2776;51.046;6.772;2023-08-12T13:30:26;24.60;99.90
5508;DHT22;2776;51.046;6.772;2023-08-12T13:32:53;24.70;99.90
5508;DHT22;2776;51.046;6.772;2023-08-12T13:35:20;24.60;99.90
5508;DHT22;2776;51.046;6.772;2023-08-12T13:37:49;24.50;99.90
5508;DHT22;2776;51.046;6.772;2023-08-12T13:40:16;24.50;99.90
5508;DHT22;2776;51.046;6.772;2023-08-12T13:42:43;24.40;99.90
5508;DHT22;2776;51.046;6.772;2023-08-12T13:45:11;24.30;99.90
5508;DHT22;2776;51.046;6.772;2023-08-12T13:47:38;24.50;99.90
5508;DHT22;2776;51.046;6.772;2023-08-12T13:50:06;24.70;99.90
5508;DHT22;2776;51.046;6.772;2023-08-12T13:52:33;24.80;99.90
5508;DHT22;2776;51.046;6.772;2023-08-12T13:55:01;24.90;99.90
5508;DHT22;2776;51.046;6.772;2023-08-12T13:57:29;25.10;99.90
5508;DHT22;2776;51.046;6.772;2023-08-12T13:59:56;25.10;99.90
5508;DHT22;2776;51.046;6.772;2023-08-12T14:02:24;24.90;99.90
5508;DHT22;2776;51.046;6.772;2023-08-12T14:04:51;24.80;99.90
5508;DHT22;2776;51.046;6.772;2023-08-12T14:07:18;24.80;99.90
5508;DHT22;2776;51.046;6.772;2023-08-12T14:09:46;24.90;99.90
5508;DHT22;2776;51.046;6.772;2023-08-12T14:12:15;24.70;99.90
5508;DHT22;2776;51.046;6.772;2023-08-12T14:14:41;24.90;99.90
5508;DHT22;2776;51.046;6.772;2023-08-12T14:17:08;25.10;99.90
5508;DHT22;2776;51.046;6.772;2023-08-12T14:19:39;25.20;99.90
5508;DHT22;2776;51.046;6.772;2023-08-12T14:22:06;25.30;99.90
5508;DHT22;2776;51.046;6.772;2023-08-12T14:24:32;25.30;99.90
5508;DHT22;2776;51.046;6.772;2023-08-12T14:26:59;25.20;99.90
5508;DHT22;2776;51.046;6.772;2023-08-12T14:29:28;25.30;99.90
5508;DHT22;2776;51.046;6.772;2023-08-12T14:31:54;25.20;99.90
5508;DHT22;2776;51.046;6.772;2023-08-12T14:34:21;25.10;99.90
5508;DHT22;2776;51.046;6.772;2023-08-12T14:36:48;25.10;99.90
5508;DHT22;2776;51.046;6.772;2023-08-12T14:39:15;25.10;99.90
5508;DHT22;2776;51.046;6.772;2023-08-12T14:41:42;25.00;99.90
5508;DHT22;2776;51.046;6.772;2023-08-12T14:44:08;24.70;99.90
5508;DHT22;2776;51.046;6.772;2023-08-12T14:46:36;24.70;99.90
5508;DHT22;2776;51.046;6.772;2023-08-12T14:49:03;24.70;99.90
5508;DHT22;2776;51.046;6.772;2023-08-12T14:51:30;24.60;99.90
5508;DHT22;2776;51.046;6.772;2023-08-12T14:53:57;24.50;99.90
5508;DHT22;2776;51.046;6.772;2023-08-12T14:56:23;24.50;99.90
5508;DHT22;2776;51.046;6.772;2023-08-12T14:58:50;24.50;99.90
5508;DHT22;2776;51.046;6.772;2023-08-12T15:01:17;24.40;99.90
5508;DHT22;2776;51.046;6.772;2023-08-12T15:03:45;24.40;99.90
5508;DHT22;2776;51.046;6.772;2023-08-12T15:06:12;24.20;99.90
5508;DHT22;2776;51.046;6.772;2023-08-12T15:08:39;24.30;99.90
5508;DHT22;2776;51.046;6.772;2023-08-12T15:11:07;24.40;99.90
5508;DHT22;2776;51.046;6.772;2023-08-12T15:13:33;24.40;99.90
5508;DHT22;2776;51.046;6.772;2023-08-12T15:16:00;24.30;99.90
5508;DHT22;2776;51.046;6.772;2023-08-12T15:18:27;24.30;99.90
5508;DHT22;2776;51.046;6.772;2023-08-12T15:20:55;24.30;99.90
5508;DHT22;2776;51.046;6.772;2023-08-12T15:23:22;24.30;99.90
5508;DHT22;2776;51.046;6.772;2023-08-12T15:25:48;24.40;99.90
5508;DHT22;2776;51.046;6.772;2023-08-12T15:28:15;24.40;99.90
5508;DHT22;2776;51.046;6.772;2023-08-12T15:30:42;24.50;99.90
5508;DHT22;2776;51.046;6.772;2023-08-12T15:33:09;24.50;99.90
5508;DHT22;2776;51.046;6.772;2023-08-12T15:35:37;24.50;99.90
5508;DHT22;2776;51.046;6.772;2023-08-12T15:38:05;24.50;99.90
5508;DHT22;2776;51.046;6.772;2023-08-12T15:40:32;24.60;99.90
5508;DHT22;2776;51.046;6.772;2023-08-12T15:42:59;24.60;99.90
5508;DHT22;2776;51.046;6.772;2023-08-12T15:45:25;24.80;99.90
5508;DHT22;2776;51.046;6.772;2023-08-12T15:47:52;24.90;99.90
5508;DHT22;2776;51.046;6.772;2023-08-12T15:50:20;25.10;99.90
5508;DHT22;2776;51.046;6.772;2023-08-12T15:52:46;25.00;99.90
5508;DHT22;2776;51.046;6.772;2023-08-12T15:55:14;25.10;99.90
5508;DHT22;2776;51.046;6.772;2023-08-12T15:57:41;25.10;99.90
5508;DHT22;2776;51.046;6.772;2023-08-12T16:00:09;25.10;99.90
5508;DHT22;2776;51.046;6.772;2023-08-12T16:02:36;25.00;99.90
5508;DHT22;2776;51.046;6.772;2023-08-12T16:05:03;24.90;99.90
5508;DHT22;2776;51.046;6.772;2023-08-12T16:07:31;24.90;99.90